sensor_id;sensor_type;location;lat;lon;timestamp;P1;durP1;ratioP1;P2;durP2;ratioP2
52940;SDS011;62001;53.366;6.636;2023-03-14T00:02:12;34.97;;;6.00;;
52940;SDS011;62001;53.366;6.636;2023-03-14T00:04:41;31.75;;;6.10;;
52940;SDS011;62001;53.366;6.636;2023-03-14T00:07:07;31.90;;;6.15;;
52940;SDS011;62001;53.366;6.636;2023-03-14T00:09:35;28.15;;;6.40;;
52940;SDS011;62001;53.366;6.636;2023-03-14T00:12:01;30.65;;;6.15;;
52940;SDS011;62001;53.366;6.636;2023-03-14T00:14:28;33.22;;;5.90;;
52940;SDS011;62001;53.366;6.636;2023-03-14T00:16:54;36.05;;;6.47;;
52940;SDS011;62001;53.366;6.636;2023-03-14T00:19:20;38.42;;;6.80;;
52940;SDS011;62001;53.366;6.636;2023-03-14T00:21:46;39.67;;;7.20;;
52940;SDS011;62001;53.366;6.636;2023-03-14T00:24:12;32.97;;;5.93;;
52940;SDS011;62001;53.366;6.636;2023-03-14T00:26:38;28.50;;;6.07;;
52940;SDS011;62001;53.366;6.636;2023-03-14T00:29:04;29.33;;;5.93;;
52940;SDS011;62001;53.366;6.636;2023-03-14T00:31:30;35.35;;;6.22;;
52940;SDS011;62001;53.366;6.636;2023-03-14T00:33:56;36.00;;;6.63;;
52940;SDS011;62001;53.366;6.636;2023-03-14T00:36:22;37.22;;;6.00;;
52940;SDS011;62001;53.366;6.636;2023-03-14T00:38:49;33.08;;;6.57;;
52940;SDS011;62001;53.366;6.636;2023-03-14T00:41:17;29.17;;;6.20;;
52940;SDS011;62001;53.366;6.636;2023-03-14T00:43:45;38.35;;;6.00;;
52940;SDS011;62001;53.366;6.636;2023-03-14T00:46:11;31.27;;;5.80;;
52940;SDS011;62001;53.366;6.636;2023-03-14T00:48:37;30.73;;;6.05;;
52940;SDS011;62001;53.366;6.636;2023-03-14T00:51:04;29.85;;;6.32;;
52940;SDS011;62001;53.366;6.636;2023-03-14T00:53:31;30.13;;;6.32;;
52940;SDS011;62001;53.366;6.636;2023-03-14T00:56:04;29.88;;;5.85;;
52940;SDS011;62001;53.366;6.636;2023-03-14T00:58:31;32.03;;;5.97;;
52940;SDS011;62001;53.366;6.636;2023-03-14T01:00:57;30.60;;;5.15;;
52940;SDS011;62001;53.366;6.636;2023-03-14T01:03:23;30.90;;;6.03;;
52940;SDS011;62001;53.366;6.636;2023-03-14T01:05:50;29.48;;;6.28;;
52940;SDS011;62001;53.366;6.636;2023-03-14T01:08:16;30.25;;;5.60;;
52940;SDS011;62001;53.366;6.636;2023-03-14T01:10:42;31.35;;;5.97;;
52940;SDS011;62001;53.366;6.636;2023-03-14T01:13:09;31.83;;;6.05;;
52940;SDS011;62001;53.366;6.636;2023-03-14T01:15:35;28.10;;;6.28;;
52940;SDS011;62001;53.366;6.636;2023-03-14T01:18:02;29.83;;;6.03;;
52940;SDS011;62001;53.366;6.636;2023-03-14T01:20:29;29.23;;;5.70;;
52940;SDS011;62001;53.366;6.636;2023-03-14T01:22:55;32.00;;;5.53;;
52940;SDS011;62001;53.366;6.636;2023-03-14T01:25:21;30.38;;;5.65;;
52940;SDS011;62001;53.366;6.636;2023-03-14T01:27:47;24.27;;;5.47;;
52940;SDS011;62001;53.366;6.636;2023-03-14T01:30:12;28.63;;;5.78;;
52940;SDS011;62001;53.366;6.636;2023-03-14T01:32:39;29.77;;;5.82;;
52940;SDS011;62001;53.366;6.636;2023-03-14T01:35:05;28.35;;;5.22;;
52940;SDS011;62001;53.366;6.636;2023-03-14T01:37:31;28.08;;;5.28;;
52940;SDS011;62001;53.366;6.636;2023-03-14T01:39:57;25.08;;;5.07;;
52940;SDS011;62001;53.366;6.636;2023-03-14T01:42:23;24.13;;;5.05;;
52940;SDS011;62001;53.366;6.636;2023-03-14T01:47:16;33.25;;;5.47;;
52940;SDS011;62001;53.366;6.636;2023-03-14T01:49:42;22.65;;;4.93;;
52940;SDS011;62001;53.366;6.636;2023-03-14T01:52:12;21.80;;;4.85;;
52940;SDS011;62001;53.366;6.636;2023-03-14T01:54:42;21.60;;;4.50;;
52940;SDS011;62001;53.366;6.636;2023-03-14T01:57:12;21.60;;;4.65;;
52940;SDS011;62001;53.366;6.636;2023-03-14T01:59:52;22.58;;;4.88;;
52940;SDS011;62001;53.366;6.636;2023-03-14T02:02:21;19.98;;;4.45;;
52940;SDS011;62001;53.366;6.636;2023-03-14T02:04:49;26.02;;;4.82;;
52940;SDS011;62001;53.366;6.636;2023-03-14T02:10:14;21.75;;;4.47;;
52940;SDS011;62001;53.366;6.636;2023-03-14T02:12:44;21.63;;;4.65;;
52940;SDS011;62001;53.366;6.636;2023-03-14T02:15:12;23.10;;;4.70;;
52940;SDS011;62001;53.366;6.636;2023-03-14T02:17:39;28.27;;;4.38;;
52940;SDS011;62001;53.366;6.636;2023-03-14T02:22:45;23.00;;;3.80;;
52940;SDS011;62001;53.366;6.636;2023-03-14T02:27:52;23.88;;;4.40;;
52940;SDS011;62001;53.366;6.636;2023-03-14T02:35:18;21.75;;;3.70;;
52940;SDS011;62001;53.366;6.636;2023-03-14T02:37:52;25.75;;;3.75;;
52940;SDS011;62001;53.366;6.636;2023-03-14T02:40:19;17.55;;;3.55;;
52940;SDS011;62001;53.366;6.636;2023-03-14T02:42:45;27.35;;;3.97;;
52940;SDS011;62001;53.366;6.636;2023-03-14T02:47:37;22.98;;;4.47;;
52940;SDS011;62001;53.366;6.636;2023-03-14T02:50:09;22.08;;;4.03;;
52940;SDS011;62001;53.366;6.636;2023-03-14T02:52:37;22.05;;;3.65;;
52940;SDS011;62001;53.366;6.636;2023-03-14T02:55:04;17.13;;;3.60;;
52940;SDS011;62001;53.366;6.636;2023-03-14T02:57:30;15.35;;;3.53;;
52940;SDS011;62001;53.366;6.636;2023-03-14T02:59:59;14.77;;;3.05;;
52940;SDS011;62001;53.366;6.636;2023-03-14T03:02:26;17.08;;;3.42;;
52940;SDS011;62001;53.366;6.636;2023-03-14T03:04:53;20.17;;;3.65;;
52940;SDS011;62001;53.366;6.636;2023-03-14T03:07:19;16.98;;;3.35;;
52940;SDS011;62001;53.366;6.636;2023-03-14T03:09:45;22.13;;;3.70;;
52940;SDS011;62001;53.366;6.636;2023-03-14T03:12:10;21.08;;;3.95;;
52940;SDS011;62001;53.366;6.636;2023-03-14T03:14:36;18.98;;;3.80;;
52940;SDS011;62001;53.366;6.636;2023-03-14T03:17:03;19.15;;;4.10;;
52940;SDS011;62001;53.366;6.636;2023-03-14T03:19:30;20.63;;;3.55;;
52940;SDS011;62001;53.366;6.636;2023-03-14T03:21:56;19.70;;;3.92;;
52940;SDS011;62001;53.366;6.636;2023-03-14T03:24:23;17.67;;;3.22;;
52940;SDS011;62001;53.366;6.636;2023-03-14T03:26:49;20.77;;;3.65;;
52940;SDS011;62001;53.366;6.636;2023-03-14T03:29:15;19.73;;;3.58;;
52940;SDS011;62001;53.366;6.636;2023-03-14T03:31:41;16.58;;;3.47;;
52940;SDS011;62001;53.366;6.636;2023-03-14T03:34:07;21.58;;;3.63;;
52940;SDS011;62001;53.366;6.636;2023-03-14T03:36:33;19.23;;;3.95;;
52940;SDS011;62001;53.366;6.636;2023-03-14T03:38:59;18.67;;;4.30;;
52940;SDS011;62001;53.366;6.636;2023-03-14T03:41:25;19.17;;;4.05;;
52940;SDS011;62001;53.366;6.636;2023-03-14T03:43:51;17.60;;;3.88;;
52940;SDS011;62001;53.366;6.636;2023-03-14T03:46:16;17.02;;;4.13;;
52940;SDS011;62001;53.366;6.636;2023-03-14T03:48:42;15.30;;;4.35;;
52940;SDS011;62001;53.366;6.636;2023-03-14T03:51:11;13.23;;;4.15;;
52940;SDS011;62001;53.366;6.636;2023-03-14T03:53:41;19.17;;;4.65;;
52940;SDS011;62001;53.366;6.636;2023-03-14T03:56:08;18.83;;;4.97;;
52940;SDS011;62001;53.366;6.636;2023-03-14T03:58:34;15.88;;;4.25;;
52940;SDS011;62001;53.366;6.636;2023-03-14T04:01:00;15.90;;;4.18;;
52940;SDS011;62001;53.366;6.636;2023-03-14T04:03:26;22.00;;;4.75;;
52940;SDS011;62001;53.366;6.636;2023-03-14T04:06:02;25.52;;;5.53;;
52940;SDS011;62001;53.366;6.636;2023-03-14T04:08:29;21.90;;;5.40;;
52940;SDS011;62001;53.366;6.636;2023-03-14T04:10:58;26.65;;;4.95;;
52940;SDS011;62001;53.366;6.636;2023-03-14T04:13:26;22.15;;;5.07;;
52940;SDS011;62001;53.366;6.636;2023-03-14T04:15:53;34.92;;;5.68;;
52940;SDS011;62001;53.366;6.636;2023-03-14T04:18:19;30.40;;;6.15;;
52940;SDS011;62001;53.366;6.636;2023-03-14T04:20:50;30.00;;;5.38;;
52940;SDS011;62001;53.366;6.636;2023-03-14T04:23:20;30.05;;;5.97;;
52940;SDS011;62001;53.366;6.636;2023-03-14T04:25:49;27.52;;;5.38;;
52940;SDS011;62001;53.366;6.636;2023-03-14T04:28:16;36.20;;;5.72;;
52940;SDS011;62001;53.366;6.636;2023-03-14T04:30:42;30.08;;;5.90;;
52940;SDS011;62001;53.366;6.636;2023-03-14T04:33:08;29.33;;;5.63;;
52940;SDS011;62001;53.366;6.636;2023-03-14T04:35:34;39.95;;;5.95;;
52940;SDS011;62001;53.366;6.636;2023-03-14T04:38:00;27.13;;;6.47;;
52940;SDS011;62001;53.366;6.636;2023-03-14T04:40:26;36.65;;;6.20;;
52940;SDS011;62001;53.366;6.636;2023-03-14T04:42:52;34.75;;;5.82;;
52940;SDS011;62001;53.366;6.636;2023-03-14T04:45:18;30.73;;;5.97;;
52940;SDS011;62001;53.366;6.636;2023-03-14T04:47:43;31.98;;;5.70;;
52940;SDS011;62001;53.366;6.636;2023-03-14T04:50:09;38.08;;;6.95;;
52940;SDS011;62001;53.366;6.636;2023-03-14T04:52:35;23.23;;;5.30;;
52940;SDS011;62001;53.366;6.636;2023-03-14T04:55:01;23.05;;;5.50;;
52940;SDS011;62001;53.366;6.636;2023-03-14T04:57:27;27.05;;;5.55;;
52940;SDS011;62001;53.366;6.636;2023-03-14T04:59:53;24.77;;;5.32;;
52940;SDS011;62001;53.366;6.636;2023-03-14T05:02:19;26.55;;;6.03;;
52940;SDS011;62001;53.366;6.636;2023-03-14T05:04:45;25.33;;;6.35;;
52940;SDS011;62001;53.366;6.636;2023-03-14T05:07:11;26.30;;;6.47;;
52940;SDS011;62001;53.366;6.636;2023-03-14T05:09:37;24.88;;;6.38;;
52940;SDS011;62001;53.366;6.636;2023-03-14T05:12:02;22.92;;;6.50;;
52940;SDS011;62001;53.366;6.636;2023-03-14T05:14:28;22.92;;;6.60;;
52940;SDS011;62001;53.366;6.636;2023-03-14T05:16:54;25.80;;;6.82;;
52940;SDS011;62001;53.366;6.636;2023-03-14T05:19:20;28.50;;;6.70;;
52940;SDS011;62001;53.366;6.636;2023-03-14T05:21:46;27.25;;;6.90;;
52940;SDS011;62001;53.366;6.636;2023-03-14T05:24:11;22.17;;;7.00;;
52940;SDS011;62001;53.366;6.636;2023-03-14T05:26:37;17.13;;;6.47;;
52940;SDS011;62001;53.366;6.636;2023-03-14T05:29:03;21.33;;;6.53;;
52940;SDS011;62001;53.366;6.636;2023-03-14T05:31:29;26.73;;;6.97;;
52940;SDS011;62001;53.366;6.636;2023-03-14T05:33:55;20.70;;;6.93;;
52940;SDS011;62001;53.366;6.636;2023-03-14T05:36:20;19.88;;;7.20;;
52940;SDS011;62001;53.366;6.636;2023-03-14T05:38:46;21.65;;;7.15;;
52940;SDS011;62001;53.366;6.636;2023-03-14T05:41:12;16.45;;;6.72;;
52940;SDS011;62001;53.366;6.636;2023-03-14T05:43:38;15.07;;;6.25;;
52940;SDS011;62001;53.366;6.636;2023-03-14T05:46:04;13.80;;;5.32;;
52940;SDS011;62001;53.366;6.636;2023-03-14T05:48:30;13.77;;;5.70;;
52940;SDS011;62001;53.366;6.636;2023-03-14T05:50:56;17.15;;;5.43;;
52940;SDS011;62001;53.366;6.636;2023-03-14T05:53:24;14.57;;;4.72;;
52940;SDS011;62001;53.366;6.636;2023-03-14T05:55:51;13.45;;;5.40;;
52940;SDS011;62001;53.366;6.636;2023-03-14T05:58:18;13.35;;;5.50;;
52940;SDS011;62001;53.366;6.636;2023-03-14T06:00:43;10.02;;;5.55;;
52940;SDS011;62001;53.366;6.636;2023-03-14T06:03:09;10.98;;;4.93;;
52940;SDS011;62001;53.366;6.636;2023-03-14T06:05:35;10.43;;;4.85;;
52940;SDS011;62001;53.366;6.636;2023-03-14T06:08:01;9.00;;;3.45;;
52940;SDS011;62001;53.366;6.636;2023-03-14T06:10:27;8.40;;;3.53;;
52940;SDS011;62001;53.366;6.636;2023-03-14T06:12:53;8.13;;;3.05;;
52940;SDS011;62001;53.366;6.636;2023-03-14T06:15:19;6.20;;;2.28;;
52940;SDS011;62001;53.366;6.636;2023-03-14T06:17:45;7.20;;;2.05;;
52940;SDS011;62001;53.366;6.636;2023-03-14T06:20:11;5.93;;;1.75;;
52940;SDS011;62001;53.366;6.636;2023-03-14T06:22:37;9.40;;;1.70;;
52940;SDS011;62001;53.366;6.636;2023-03-14T06:25:04;13.63;;;2.00;;
52940;SDS011;62001;53.366;6.636;2023-03-14T06:27:30;15.88;;;2.45;;
52940;SDS011;62001;53.366;6.636;2023-03-14T06:29:56;23.50;;;3.28;;
52940;SDS011;62001;53.366;6.636;2023-03-14T06:32:22;31.73;;;4.72;;
52940;SDS011;62001;53.366;6.636;2023-03-14T06:34:48;27.27;;;4.05;;
52940;SDS011;62001;53.366;6.636;2023-03-14T06:37:14;36.97;;;3.97;;
52940;SDS011;62001;53.366;6.636;2023-03-14T06:39:39;29.50;;;4.53;;
52940;SDS011;62001;53.366;6.636;2023-03-14T06:42:05;31.33;;;4.45;;
52940;SDS011;62001;53.366;6.636;2023-03-14T06:44:32;39.30;;;4.03;;
52940;SDS011;62001;53.366;6.636;2023-03-14T06:46:58;29.27;;;3.80;;
52940;SDS011;62001;53.366;6.636;2023-03-14T06:49:24;21.47;;;4.00;;
52940;SDS011;62001;53.366;6.636;2023-03-14T06:51:50;27.77;;;3.33;;
52940;SDS011;62001;53.366;6.636;2023-03-14T06:54:16;21.57;;;2.40;;
52940;SDS011;62001;53.366;6.636;2023-03-14T06:56:42;16.50;;;2.17;;
52940;SDS011;62001;53.366;6.636;2023-03-14T06:59:08;12.77;;;2.20;;
52940;SDS011;62001;53.366;6.636;2023-03-14T07:01:33;11.93;;;1.93;;
52940;SDS011;62001;53.366;6.636;2023-03-14T07:04:00;16.83;;;2.13;;
52940;SDS011;62001;53.366;6.636;2023-03-14T07:06:26;17.30;;;1.90;;
52940;SDS011;62001;53.366;6.636;2023-03-14T07:08:54;15.83;;;1.57;;
52940;SDS011;62001;53.366;6.636;2023-03-14T07:11:21;11.40;;;1.50;;
52940;SDS011;62001;53.366;6.636;2023-03-14T07:13:47;13.23;;;1.70;;
52940;SDS011;62001;53.366;6.636;2023-03-14T07:16:13;10.60;;;1.83;;
52940;SDS011;62001;53.366;6.636;2023-03-14T07:18:39;9.73;;;1.60;;
52940;SDS011;62001;53.366;6.636;2023-03-14T07:21:08;9.70;;;1.40;;
52940;SDS011;62001;53.366;6.636;2023-03-14T07:23:34;9.57;;;0.97;;
52940;SDS011;62001;53.366;6.636;2023-03-14T07:26:00;6.73;;;1.07;;
52940;SDS011;62001;53.366;6.636;2023-03-14T07:28:26;6.97;;;1.50;;
52940;SDS011;62001;53.366;6.636;2023-03-14T07:30:53;5.47;;;1.40;;
52940;SDS011;62001;53.366;6.636;2023-03-14T07:33:19;7.20;;;1.27;;
52940;SDS011;62001;53.366;6.636;2023-03-14T07:35:46;10.30;;;1.43;;
52940;SDS011;62001;53.366;6.636;2023-03-14T07:38:13;12.53;;;1.30;;
52940;SDS011;62001;53.366;6.636;2023-03-14T07:40:39;7.57;;;1.10;;
52940;SDS011;62001;53.366;6.636;2023-03-14T07:43:05;6.00;;;0.90;;
52940;SDS011;62001;53.366;6.636;2023-03-14T07:45:31;4.50;;;1.00;;
52940;SDS011;62001;53.366;6.636;2023-03-14T07:47:57;6.50;;;1.17;;
52940;SDS011;62001;53.366;6.636;2023-03-14T07:50:23;7.77;;;1.00;;
52940;SDS011;62001;53.366;6.636;2023-03-14T07:52:50;7.50;;;1.23;;
52940;SDS011;62001;53.366;6.636;2023-03-14T07:55:16;7.20;;;1.03;;
52940;SDS011;62001;53.366;6.636;2023-03-14T07:57:42;6.43;;;1.13;;
52940;SDS011;62001;53.366;6.636;2023-03-14T08:00:08;8.13;;;1.73;;
52940;SDS011;62001;53.366;6.636;2023-03-14T08:02:34;12.47;;;1.50;;
52940;SDS011;62001;53.366;6.636;2023-03-14T08:05:01;15.23;;;1.50;;
52940;SDS011;62001;53.366;6.636;2023-03-14T08:07:28;7.50;;;1.23;;
52940;SDS011;62001;53.366;6.636;2023-03-14T08:09:54;7.27;;;1.17;;
52940;SDS011;62001;53.366;6.636;2023-03-14T08:12:19;8.07;;;1.57;;
52940;SDS011;62001;53.366;6.636;2023-03-14T08:14:45;13.03;;;1.80;;
52940;SDS011;62001;53.366;6.636;2023-03-14T08:17:11;9.70;;;1.67;;
52940;SDS011;62001;53.366;6.636;2023-03-14T08:19:37;12.83;;;2.07;;
52940;SDS011;62001;53.366;6.636;2023-03-14T08:22:03;13.90;;;1.93;;
52940;SDS011;62001;53.366;6.636;2023-03-14T08:24:29;11.53;;;1.97;;
52940;SDS011;62001;53.366;6.636;2023-03-14T08:26:56;12.50;;;1.80;;
52940;SDS011;62001;53.366;6.636;2023-03-14T08:29:21;12.53;;;2.10;;
52940;SDS011;62001;53.366;6.636;2023-03-14T08:31:47;12.00;;;1.93;;
52940;SDS011;62001;53.366;6.636;2023-03-14T08:34:14;15.20;;;2.40;;
52940;SDS011;62001;53.366;6.636;2023-03-14T08:36:40;12.13;;;2.23;;
52940;SDS011;62001;53.366;6.636;2023-03-14T08:39:06;20.63;;;2.73;;
52940;SDS011;62001;53.366;6.636;2023-03-14T08:41:33;15.73;;;2.33;;
52940;SDS011;62001;53.366;6.636;2023-03-14T08:44:05;19.33;;;3.23;;
52940;SDS011;62001;53.366;6.636;2023-03-14T08:46:31;23.33;;;2.83;;
52940;SDS011;62001;53.366;6.636;2023-03-14T08:48:57;21.17;;;3.00;;
52940;SDS011;62001;53.366;6.636;2023-03-14T08:51:23;21.20;;;3.00;;
52940;SDS011;62001;53.366;6.636;2023-03-14T08:53:49;21.83;;;3.90;;
52940;SDS011;62001;53.366;6.636;2023-03-14T08:56:16;25.73;;;4.00;;
52940;SDS011;62001;53.366;6.636;2023-03-14T08:58:41;18.23;;;3.77;;
52940;SDS011;62001;53.366;6.636;2023-03-14T09:01:08;23.20;;;3.57;;
52940;SDS011;62001;53.366;6.636;2023-03-14T09:03:35;23.73;;;3.67;;
52940;SDS011;62001;53.366;6.636;2023-03-14T09:06:03;23.47;;;4.57;;
52940;SDS011;62001;53.366;6.636;2023-03-14T09:08:33;25.87;;;3.87;;
52940;SDS011;62001;53.366;6.636;2023-03-14T09:10:59;31.00;;;4.27;;
52940;SDS011;62001;53.366;6.636;2023-03-14T09:13:25;28.43;;;4.63;;
52940;SDS011;62001;53.366;6.636;2023-03-14T09:15:52;24.77;;;3.93;;
52940;SDS011;62001;53.366;6.636;2023-03-14T09:18:18;37.10;;;4.57;;
52940;SDS011;62001;53.366;6.636;2023-03-14T09:20:44;25.10;;;3.90;;
52940;SDS011;62001;53.366;6.636;2023-03-14T09:23:10;16.90;;;3.80;;
52940;SDS011;62001;53.366;6.636;2023-03-14T09:25:35;27.53;;;4.40;;
52940;SDS011;62001;53.366;6.636;2023-03-14T09:28:01;29.37;;;4.13;;
52940;SDS011;62001;53.366;6.636;2023-03-14T09:30:27;29.80;;;4.33;;
52940;SDS011;62001;53.366;6.636;2023-03-14T09:32:53;29.20;;;3.97;;
52940;SDS011;62001;53.366;6.636;2023-03-14T09:35:19;29.33;;;4.27;;
52940;SDS011;62001;53.366;6.636;2023-03-14T09:37:45;19.43;;;3.70;;
52940;SDS011;62001;53.366;6.636;2023-03-14T09:40:18;24.57;;;3.97;;
52940;SDS011;62001;53.366;6.636;2023-03-14T09:42:46;30.30;;;4.47;;
52940;SDS011;62001;53.366;6.636;2023-03-14T09:45:17;27.70;;;4.68;;
52940;SDS011;62001;53.366;6.636;2023-03-14T09:47:53;24.60;;;4.90;;
52940;SDS011;62001;53.366;6.636;2023-03-14T09:50:20;20.47;;;4.03;;
52940;SDS011;62001;53.366;6.636;2023-03-14T09:52:51;30.00;;;4.40;;
52940;SDS011;62001;53.366;6.636;2023-03-14T09:55:25;35.00;;;5.03;;
52940;SDS011;62001;53.366;6.636;2023-03-14T09:57:56;29.27;;;4.97;;
52940;SDS011;62001;53.366;6.636;2023-03-14T10:00:26;24.67;;;4.30;;
52940;SDS011;62001;53.366;6.636;2023-03-14T10:03:12;26.33;;;4.07;;
52940;SDS011;62001;53.366;6.636;2023-03-14T10:05:43;29.77;;;4.47;;
52940;SDS011;62001;53.366;6.636;2023-03-14T10:08:13;21.87;;;3.43;;
52940;SDS011;62001;53.366;6.636;2023-03-14T10:10:39;27.33;;;3.85;;
52940;SDS011;62001;53.366;6.636;2023-03-14T10:15:54;23.10;;;4.03;;
52940;SDS011;62001;53.366;6.636;2023-03-14T10:18:23;29.80;;;4.27;;
52940;SDS011;62001;53.366;6.636;2023-03-14T10:20:52;22.97;;;3.70;;
52940;SDS011;62001;53.366;6.636;2023-03-14T10:23:29;21.93;;;3.57;;
52940;SDS011;62001;53.366;6.636;2023-03-14T10:26:07;18.53;;;3.43;;
52940;SDS011;62001;53.366;6.636;2023-03-14T10:28:41;19.27;;;2.97;;
52940;SDS011;62001;53.366;6.636;2023-03-14T10:31:08;18.47;;;3.27;;
52940;SDS011;62001;53.366;6.636;2023-03-14T10:33:35;19.07;;;2.80;;
52940;SDS011;62001;53.366;6.636;2023-03-14T10:36:19;22.63;;;3.45;;
52940;SDS011;62001;53.366;6.636;2023-03-14T10:38:56;15.57;;;2.65;;
52940;SDS011;62001;53.366;6.636;2023-03-14T10:41:30;17.60;;;2.97;;
52940;SDS011;62001;53.366;6.636;2023-03-14T10:43:58;19.05;;;3.47;;
52940;SDS011;62001;53.366;6.636;2023-03-14T10:46:26;17.97;;;3.43;;
52940;SDS011;62001;53.366;6.636;2023-03-14T10:48:55;18.80;;;3.47;;
52940;SDS011;62001;53.366;6.636;2023-03-14T10:51:28;16.90;;;3.23;;
52940;SDS011;62001;53.366;6.636;2023-03-14T10:53:59;13.30;;;2.80;;
52940;SDS011;62001;53.366;6.636;2023-03-14T10:56:37;14.30;;;2.37;;
52940;SDS011;62001;53.366;6.636;2023-03-14T10:59:04;11.88;;;2.75;;
52940;SDS011;62001;53.366;6.636;2023-03-14T11:23:45;11.07;;;2.30;;
52940;SDS011;62001;53.366;6.636;2023-03-14T11:28:50;11.50;;;2.30;;
52940;SDS011;62001;53.366;6.636;2023-03-14T11:31:28;8.33;;;2.17;;
52940;SDS011;62001;53.366;6.636;2023-03-14T11:36:51;12.90;;;2.33;;
52940;SDS011;62001;53.366;6.636;2023-03-14T11:39:21;8.15;;;2.10;;
52940;SDS011;62001;53.366;6.636;2023-03-14T11:41:49;6.43;;;1.70;;
52940;SDS011;62001;53.366;6.636;2023-03-14T11:44:23;12.43;;;2.00;;
52940;SDS011;62001;53.366;6.636;2023-03-14T11:49:32;15.50;;;2.03;;
52940;SDS011;62001;53.366;6.636;2023-03-14T11:52:20;12.47;;;2.23;;
52940;SDS011;62001;53.366;6.636;2023-03-14T11:57:37;9.60;;;1.88;;
52940;SDS011;62001;53.366;6.636;2023-03-14T12:02:51;10.10;;;2.17;;
52940;SDS011;62001;53.366;6.636;2023-03-14T12:05:39;20.50;;;3.13;;
52940;SDS011;62001;53.366;6.636;2023-03-14T12:08:42;16.75;;;2.70;;
52940;SDS011;62001;53.366;6.636;2023-03-14T12:11:13;18.23;;;3.03;;
52940;SDS011;62001;53.366;6.636;2023-03-14T12:14:00;19.33;;;3.13;;
52940;SDS011;62001;53.366;6.636;2023-03-14T12:16:30;15.20;;;3.00;;
52940;SDS011;62001;53.366;6.636;2023-03-14T12:24:26;19.40;;;3.38;;
52940;SDS011;62001;53.366;6.636;2023-03-14T12:26:56;16.42;;;3.10;;
52940;SDS011;62001;53.366;6.636;2023-03-14T12:29:26;18.85;;;2.80;;
52940;SDS011;62001;53.366;6.636;2023-03-14T12:34:49;18.27;;;2.70;;
52940;SDS011;62001;53.366;6.636;2023-03-14T12:42:38;8.38;;;2.28;;
52940;SDS011;62001;53.366;6.636;2023-03-14T12:47:50;8.25;;;1.88;;
52940;SDS011;62001;53.366;6.636;2023-03-14T12:50:19;13.70;;;2.08;;
52940;SDS011;62001;53.366;6.636;2023-03-14T13:02:00;8.60;;;1.77;;
52940;SDS011;62001;53.366;6.636;2023-03-14T13:10:24;13.23;;;2.47;;
52940;SDS011;62001;53.366;6.636;2023-03-14T13:15:56;11.05;;;2.33;;
52940;SDS011;62001;53.366;6.636;2023-03-14T13:18:35;12.77;;;2.10;;
52940;SDS011;62001;53.366;6.636;2023-03-14T13:21:09;11.52;;;1.88;;
52940;SDS011;62001;53.366;6.636;2023-03-14T13:26:37;8.38;;;1.70;;
52940;SDS011;62001;53.366;6.636;2023-03-14T13:29:22;8.10;;;1.73;;
52940;SDS011;62001;53.366;6.636;2023-03-14T13:31:51;12.10;;;2.63;;
52940;SDS011;62001;53.366;6.636;2023-03-14T13:34:19;9.83;;;1.80;;
52940;SDS011;62001;53.366;6.636;2023-03-14T13:36:46;10.13;;;1.90;;
52940;SDS011;62001;53.366;6.636;2023-03-14T13:39:18;11.50;;;2.25;;
52940;SDS011;62001;53.366;6.636;2023-03-14T13:41:49;16.63;;;2.60;;
52940;SDS011;62001;53.366;6.636;2023-03-14T13:44:38;11.88;;;2.25;;
52940;SDS011;62001;53.366;6.636;2023-03-14T13:47:05;11.27;;;2.50;;
52940;SDS011;62001;53.366;6.636;2023-03-14T13:49:40;16.83;;;2.80;;
52940;SDS011;62001;53.366;6.636;2023-03-14T13:54:54;11.97;;;2.30;;
52940;SDS011;62001;53.366;6.636;2023-03-14T13:57:20;10.93;;;2.17;;
52940;SDS011;62001;53.366;6.636;2023-03-14T14:00:04;13.57;;;2.65;;
52940;SDS011;62001;53.366;6.636;2023-03-14T14:02:34;12.05;;;2.80;;
52940;SDS011;62001;53.366;6.636;2023-03-14T14:05:03;13.80;;;2.47;;
52940;SDS011;62001;53.366;6.636;2023-03-14T14:07:29;15.20;;;2.30;;
52940;SDS011;62001;53.366;6.636;2023-03-14T14:09:55;14.82;;;2.28;;
52940;SDS011;62001;53.366;6.636;2023-03-14T14:12:26;12.65;;;2.72;;
52940;SDS011;62001;53.366;6.636;2023-03-14T14:15:06;9.13;;;2.03;;
52940;SDS011;62001;53.366;6.636;2023-03-14T14:17:52;9.75;;;2.03;;
52940;SDS011;62001;53.366;6.636;2023-03-14T14:20:26;9.23;;;1.67;;
52940;SDS011;62001;53.366;6.636;2023-03-14T14:22:57;12.05;;;2.45;;
52940;SDS011;62001;53.366;6.636;2023-03-14T14:25:23;14.63;;;2.47;;
52940;SDS011;62001;53.366;6.636;2023-03-14T14:27:50;10.45;;;2.35;;
52940;SDS011;62001;53.366;6.636;2023-03-14T14:32:45;12.43;;;2.90;;
52940;SDS011;62001;53.366;6.636;2023-03-14T14:35:26;14.00;;;2.77;;
52940;SDS011;62001;53.366;6.636;2023-03-14T14:37:59;14.57;;;2.70;;
52940;SDS011;62001;53.366;6.636;2023-03-14T14:40:27;12.73;;;2.50;;
52940;SDS011;62001;53.366;6.636;2023-03-14T14:42:55;17.30;;;3.10;;
52940;SDS011;62001;53.366;6.636;2023-03-14T14:45:28;15.37;;;2.57;;
52940;SDS011;62001;53.366;6.636;2023-03-14T14:48:02;15.97;;;2.40;;
52940;SDS011;62001;53.366;6.636;2023-03-14T14:50:33;15.70;;;2.80;;
52940;SDS011;62001;53.366;6.636;2023-03-14T14:53:02;12.80;;;2.93;;
52940;SDS011;62001;53.366;6.636;2023-03-14T14:55:45;10.93;;;2.05;;
52940;SDS011;62001;53.366;6.636;2023-03-14T15:03:28;11.90;;;2.13;;
52940;SDS011;62001;53.366;6.636;2023-03-14T15:05:55;10.93;;;1.73;;
52940;SDS011;62001;53.366;6.636;2023-03-14T15:08:21;8.40;;;1.80;;
52940;SDS011;62001;53.366;6.636;2023-03-14T15:10:47;14.63;;;1.97;;
52940;SDS011;62001;53.366;6.636;2023-03-14T15:13:13;10.60;;;2.10;;
52940;SDS011;62001;53.366;6.636;2023-03-14T15:15:39;8.10;;;1.73;;
52940;SDS011;62001;53.366;6.636;2023-03-14T15:18:11;10.23;;;1.83;;
52940;SDS011;62001;53.366;6.636;2023-03-14T15:20:39;4.83;;;1.67;;
52940;SDS011;62001;53.366;6.636;2023-03-14T15:23:12;13.43;;;1.88;;
52940;SDS011;62001;53.366;6.636;2023-03-14T15:25:39;12.40;;;2.00;;
52940;SDS011;62001;53.366;6.636;2023-03-14T15:28:14;15.97;;;2.23;;
52940;SDS011;62001;53.366;6.636;2023-03-14T15:30:49;12.67;;;2.10;;
52940;SDS011;62001;53.366;6.636;2023-03-14T15:33:17;15.10;;;2.30;;
52940;SDS011;62001;53.366;6.636;2023-03-14T15:35:44;13.03;;;2.40;;
52940;SDS011;62001;53.366;6.636;2023-03-14T15:38:11;10.30;;;1.90;;
52940;SDS011;62001;53.366;6.636;2023-03-14T15:40:38;10.67;;;2.10;;
52940;SDS011;62001;53.366;6.636;2023-03-14T15:43:05;12.77;;;2.33;;
52940;SDS011;62001;53.366;6.636;2023-03-14T15:45:31;8.20;;;2.10;;
52940;SDS011;62001;53.366;6.636;2023-03-14T15:47:56;13.50;;;2.20;;
52940;SDS011;62001;53.366;6.636;2023-03-14T15:50:22;21.50;;;4.60;;
52940;SDS011;62001;53.366;6.636;2023-03-14T15:52:50;12.10;;;2.50;;
52940;SDS011;62001;53.366;6.636;2023-03-14T15:55:17;11.70;;;2.30;;
52940;SDS011;62001;53.366;6.636;2023-03-14T15:57:43;13.60;;;1.90;;
52940;SDS011;62001;53.366;6.636;2023-03-14T16:00:14;14.37;;;2.40;;
52940;SDS011;62001;53.366;6.636;2023-03-14T16:02:43;8.83;;;2.10;;
52940;SDS011;62001;53.366;6.636;2023-03-14T16:05:10;9.40;;;1.77;;
52940;SDS011;62001;53.366;6.636;2023-03-14T16:07:37;8.47;;;1.70;;
52940;SDS011;62001;53.366;6.636;2023-03-14T16:10:04;9.63;;;2.20;;
52940;SDS011;62001;53.366;6.636;2023-03-14T16:12:32;9.80;;;1.90;;
52940;SDS011;62001;53.366;6.636;2023-03-14T16:14:58;10.00;;;2.20;;
52940;SDS011;62001;53.366;6.636;2023-03-14T16:17:24;15.13;;;2.87;;
52940;SDS011;62001;53.366;6.636;2023-03-14T16:19:50;14.67;;;3.57;;
52940;SDS011;62001;53.366;6.636;2023-03-14T16:22:16;17.33;;;4.13;;
52940;SDS011;62001;53.366;6.636;2023-03-14T16:24:42;18.57;;;4.03;;
52940;SDS011;62001;53.366;6.636;2023-03-14T16:27:08;18.63;;;3.50;;